createdAt,value
2022-10-30T00:01:55.039Z,13.33
2022-10-30T00:04:21.725Z,13.40
2022-10-30T00:06:48.931Z,13.09
2022-10-30T00:09:15.464Z,12.98
2022-10-30T00:11:42.112Z,12.97
2022-10-30T00:14:09.330Z,13.22
2022-10-30T00:16:35.891Z,13.56
2022-10-30T00:19:02.419Z,13.56
2022-10-30T00:21:28.961Z,13.48
2022-10-30T00:23:55.498Z,13.50
2022-10-30T00:26:23.430Z,13.39
2022-10-30T00:28:51.436Z,13.45
2022-10-30T00:31:18.423Z,13.68
2022-10-30T00:33:49.639Z,13.38
2022-10-30T00:36:16.278Z,13.31
2022-10-30T00:38:42.826Z,13.35
2022-10-30T00:41:17.651Z,13.16
2022-10-30T00:43:44.663Z,13.43
2022-10-30T00:46:35.557Z,13.56
2022-10-30T00:49:10.179Z,13.50
2022-10-30T00:51:39.210Z,13.68
2022-10-30T00:54:06.868Z,13.85
2022-10-30T00:56:34.434Z,13.99
2022-10-30T00:59:10.873Z,13.99
2022-10-30T01:01:40.498Z,14.03
2022-10-30T01:04:07.418Z,14.10
2022-10-30T01:06:38.704Z,14.19
2022-10-30T01:09:05.675Z,14.23
2022-10-30T01:11:32.524Z,14.22
2022-10-30T01:14:04.090Z,14.21
2022-10-30T01:16:49.337Z,14.29
2022-10-30T01:22:38.504Z,14.41
2022-10-30T01:25:14.765Z,14.46
2022-10-30T01:28:13.973Z,14.48
2022-10-30T01:30:49.862Z,14.51
2022-10-30T01:34:14.742Z,14.62
2022-10-30T01:37:05.078Z,14.66
2022-10-30T01:39:37.221Z,14.67
2022-10-30T01:42:11.703Z,14.51
2022-10-30T01:44:39.153Z,14.44
2022-10-30T01:47:11.949Z,14.42
2022-10-30T01:49:58.727Z,14.29
2022-10-30T01:52:55.549Z,14.28
2022-10-30T01:55:46.223Z,14.35
2022-10-30T01:58:44.136Z,14.31
2022-10-30T02:01:12.077Z,14.29
2022-10-30T02:03:39.190Z,14.20
2022-10-30T02:06:06.019Z,14.13
2022-10-30T02:08:32.587Z,14.08
2022-10-30T02:10:59.407Z,13.75
2022-10-30T02:13:37.200Z,13.49
2022-10-30T02:16:03.976Z,13.34
2022-10-30T02:18:30.621Z,13.29
2022-10-30T02:20:57.346Z,13.20
2022-10-30T02:23:24.088Z,13.33
2022-10-30T02:25:50.710Z,13.30
2022-10-30T02:28:17.559Z,13.35
2022-10-30T02:30:44.211Z,13.34
2022-10-30T02:33:11.184Z,13.50
2022-10-30T02:35:37.944Z,13.57
2022-10-30T02:38:04.594Z,13.73
2022-10-30T02:40:31.595Z,13.70
2022-10-30T02:42:58.192Z,13.79
2022-10-30T02:45:24.872Z,14.00
2022-10-30T02:47:51.567Z,14.19
2022-10-30T02:50:18.515Z,14.36
2022-10-30T02:52:45.224Z,14.49
2022-10-30T02:55:12.489Z,14.54
2022-10-30T02:57:40.448Z,14.52
2022-10-30T03:00:07.737Z,14.55
2022-10-30T03:02:34.433Z,14.53
2022-10-30T03:05:00.975Z,14.60
2022-10-30T03:07:27.542Z,14.61
2022-10-30T03:09:54.925Z,14.69
2022-10-30T03:12:22.323Z,14.70
2022-10-30T03:14:48.902Z,14.75
2022-10-30T03:17:15.563Z,14.80
2022-10-30T03:19:42.127Z,14.83
2022-10-30T03:22:08.956Z,14.85
2022-10-30T03:24:38.207Z,14.85
2022-10-30T03:27:05.174Z,14.83
2022-10-30T03:29:31.839Z,14.78
2022-10-30T03:31:58.678Z,14.65
2022-10-30T03:34:30.031Z,14.61
2022-10-30T03:36:58.631Z,14.60
2022-10-30T03:39:25.814Z,14.66
2022-10-30T03:41:52.761Z,14.70
2022-10-30T03:44:19.374Z,14.78
2022-10-30T03:46:46.131Z,14.77
2022-10-30T03:49:32.960Z,14.68
2022-10-30T03:52:02.436Z,14.63
2022-10-30T03:54:29.025Z,14.58
2022-10-30T03:56:55.683Z,14.55
2022-10-30T03:59:25.597Z,14.53
2022-10-30T04:02:12.341Z,14.55
2022-10-30T04:04:39.190Z,14.60
2022-10-30T04:07:05.788Z,14.63
2022-10-30T04:09:33.086Z,14.68
2022-10-30T04:11:59.667Z,14.67
2022-10-30T04:14:26.259Z,14.59
2022-10-30T04:16:53.072Z,14.62
2022-10-30T04:19:19.551Z,14.61
2022-10-30T04:21:47.764Z,14.59
2022-10-30T04:24:18.650Z,14.63
2022-10-30T04:26:47.956Z,14.69
2022-10-30T04:29:14.559Z,14.66
2022-10-30T04:31:42.395Z,14.67
2022-10-30T04:34:09.115Z,14.67
2022-10-30T04:36:35.989Z,14.54
2022-10-30T04:39:03.176Z,14.46
2022-10-30T04:41:31.021Z,14.38
2022-10-30T04:44:03.076Z,14.33
2022-10-30T04:46:32.452Z,14.39
2022-10-30T04:49:06.577Z,14.40
2022-10-30T04:51:33.242Z,14.34
2022-10-30T04:54:01.246Z,14.33
2022-10-30T04:56:32.917Z,14.30
2022-10-30T04:58:59.911Z,14.29
2022-10-30T05:01:26.550Z,14.27
2022-10-30T05:03:54.828Z,14.34
2022-10-30T05:06:26.091Z,14.32
2022-10-30T05:08:53.475Z,14.24
2022-10-30T05:11:35.841Z,14.15
2022-10-30T05:14:02.487Z,14.10
2022-10-30T05:16:29.033Z,13.99
2022-10-30T05:18:57.644Z,13.99
2022-10-30T05:21:24.252Z,14.03
2022-10-30T05:23:50.814Z,14.09
2022-10-30T05:26:17.502Z,14.09
2022-10-30T05:28:44.164Z,14.05
2022-10-30T05:31:10.863Z,14.01
2022-10-30T05:33:58.692Z,13.94
2022-10-30T05:36:26.731Z,13.94
2022-10-30T05:38:53.307Z,13.93
2022-10-30T05:41:38.034Z,13.93
2022-10-30T05:44:04.820Z,13.95
2022-10-30T05:46:32.944Z,13.93
2022-10-30T05:49:10.569Z,13.89
2022-10-30T05:51:39.726Z,13.85
2022-10-30T05:54:09.684Z,13.83
2022-10-30T05:56:40.530Z,13.82
2022-10-30T05:59:07.355Z,13.87
2022-10-30T06:01:34.051Z,13.84
2022-10-30T06:04:04.664Z,13.74
2022-10-30T06:06:32.695Z,13.66
2022-10-30T06:08:59.362Z,13.65
2022-10-30T06:11:35.538Z,13.65
2022-10-30T06:14:02.696Z,13.70
2022-10-30T06:16:38.307Z,13.66
2022-10-30T06:19:31.257Z,13.66
2022-10-30T06:22:10.405Z,13.67
2022-10-30T06:27:39.599Z,13.69
2022-10-30T06:30:06.663Z,13.71
2022-10-30T06:32:33.218Z,13.74
2022-10-30T06:34:59.991Z,13.69
2022-10-30T06:37:26.779Z,13.65
2022-10-30T06:39:53.477Z,13.69
2022-10-30T06:42:48.100Z,13.68
2022-10-30T06:45:29.138Z,13.69
2022-10-30T06:47:56.483Z,13.67
2022-10-30T06:50:24.337Z,13.67
2022-10-30T06:52:51.572Z,13.75
2022-10-30T06:55:18.557Z,13.85
2022-10-30T06:58:07.968Z,13.91
2022-10-30T07:00:44.139Z,13.95
2022-10-30T07:03:43.014Z,14.03
2022-10-30T07:06:09.655Z,14.04
2022-10-30T07:08:37.635Z,14.04
2022-10-30T07:11:05.828Z,14.06
2022-10-30T07:13:42.941Z,14.09
2022-10-30T07:16:28.109Z,14.16
2022-10-30T07:18:58.198Z,14.14
2022-10-30T07:21:27.215Z,14.23
2022-10-30T07:23:53.816Z,14.22
2022-10-30T07:26:37.890Z,14.19
2022-10-30T07:29:21.338Z,14.16
2022-10-30T07:32:04.636Z,14.24
2022-10-30T07:34:46.236Z,14.29
2022-10-30T07:37:29.743Z,14.27
2022-10-30T07:40:11.476Z,14.28
2022-10-30T07:42:59.319Z,14.34
2022-10-30T07:45:56.734Z,14.38
2022-10-30T07:48:51.174Z,14.48
2022-10-30T07:54:12.133Z,14.51
2022-10-30T07:56:39.000Z,14.44
2022-10-30T07:59:24.862Z,14.41
2022-10-30T08:02:35.900Z,14.43
2022-10-30T08:08:24.667Z,14.42
2022-10-30T08:11:00.980Z,14.46
2022-10-30T08:13:27.752Z,14.54
2022-10-30T08:15:54.392Z,14.63
2022-10-30T08:18:21.035Z,14.61
2022-10-30T08:20:50.695Z,14.61
2022-10-30T08:26:02.294Z,14.55
2022-10-30T08:28:33.104Z,14.58
2022-10-30T08:31:02.617Z,14.58
2022-10-30T08:36:35.057Z,14.65
2022-10-30T08:39:03.967Z,14.57
2022-10-30T08:41:50.843Z,14.51
2022-10-30T08:44:19.339Z,14.54
2022-10-30T08:47:04.616Z,14.53
2022-10-30T08:49:31.465Z,14.63
2022-10-30T08:52:00.052Z,14.73
2022-10-30T08:54:26.814Z,14.80
2022-10-30T08:56:54.780Z,14.90
2022-10-30T08:59:22.941Z,14.96
2022-10-30T09:01:51.605Z,15.02
2022-10-30T09:04:18.323Z,15.02
2022-10-30T09:07:07.538Z,15.11
2022-10-30T09:09:55.399Z,15.17
2022-10-30T09:12:23.701Z,15.24
2022-10-30T09:14:50.367Z,15.30
2022-10-30T09:17:17.599Z,15.34
2022-10-30T09:22:24.779Z,15.42
2022-10-30T09:24:52.169Z,15.55
2022-10-30T09:27:42.772Z,15.63
2022-10-30T09:30:11.365Z,15.62
2022-10-30T09:32:42.925Z,15.63
2022-10-30T09:35:12.258Z,15.69
2022-10-30T09:37:40.783Z,15.68
2022-10-30T09:40:23.526Z,15.66
2022-10-30T09:42:51.356Z,15.72
2022-10-30T09:45:30.988Z,15.75
2022-10-30T09:48:08.952Z,15.74
2022-10-30T09:51:18.098Z,15.75
2022-10-30T09:54:13.032Z,15.79
2022-10-30T09:56:56.706Z,15.92
2022-10-30T09:59:54.931Z,15.94
2022-10-30T10:02:30.337Z,15.97
2022-10-30T10:05:34.613Z,16.03
2022-10-30T10:08:45.906Z,16.09
2022-10-30T10:11:41.085Z,16.19
2022-10-30T10:14:21.746Z,16.31
2022-10-30T10:16:56.707Z,16.38
2022-10-30T10:19:33.480Z,16.46
2022-10-30T10:22:02.981Z,16.51
2022-10-30T10:24:33.632Z,16.54
2022-10-30T10:27:00.118Z,16.60
2022-10-30T10:29:40.714Z,16.64
2022-10-30T10:32:33.949Z,16.63
2022-10-30T10:35:24.718Z,16.72
2022-10-30T10:37:57.612Z,16.81
2022-10-30T10:40:46.095Z,16.90
2022-10-30T10:43:23.085Z,16.97
2022-10-30T10:46:43.821Z,17.07
2022-10-30T10:49:40.155Z,17.14
2022-10-30T10:52:25.649Z,17.25
2022-10-30T10:55:02.439Z,17.22
2022-10-30T10:57:33.820Z,17.22
2022-10-30T11:00:29.208Z,17.24
2022-10-30T11:05:57.479Z,17.53
2022-10-30T11:08:34.956Z,17.66
2022-10-30T11:11:06.665Z,17.71
2022-10-30T11:13:39.385Z,17.64
2022-10-30T11:16:17.624Z,17.66
2022-10-30T11:18:47.603Z,17.73
2022-10-30T11:21:24.086Z,17.79
2022-10-30T11:23:51.603Z,17.85
2022-10-30T11:26:18.031Z,17.94
2022-10-30T11:28:54.885Z,17.95
2022-10-30T11:31:27.504Z,17.82
2022-10-30T11:33:54.593Z,17.86
2022-10-30T11:36:25.773Z,18.03
2022-10-30T11:38:57.066Z,18.11
2022-10-30T11:41:23.920Z,18.16
2022-10-30T11:43:50.537Z,18.28
2022-10-30T11:46:23.428Z,18.30
2022-10-30T11:48:55.039Z,18.46
2022-10-30T11:51:38.221Z,18.56
2022-10-30T11:54:05.289Z,18.68
2022-10-30T11:56:34.058Z,18.75
2022-10-30T11:59:03.247Z,19.06
2022-10-30T12:01:39.209Z,19.62
2022-10-30T12:04:27.191Z,20.23
2022-10-30T12:07:11.891Z,20.68
2022-10-30T12:09:43.387Z,21.14
2022-10-30T12:12:32.905Z,21.53
2022-10-30T12:15:14.768Z,22.14
2022-10-30T12:17:50.569Z,22.31
2022-10-30T12:20:17.405Z,22.09
2022-10-30T12:22:44.164Z,22.12
2022-10-30T12:25:31.407Z,22.48
2022-10-30T12:28:17.547Z,22.77
2022-10-30T12:30:52.396Z,23.05
2022-10-30T12:33:28.105Z,23.17
2022-10-30T12:36:05.449Z,23.29
2022-10-30T12:38:42.607Z,23.50
2022-10-30T12:41:43.662Z,23.37
2022-10-30T12:44:28.402Z,23.16
2022-10-30T12:47:02.331Z,23.13
2022-10-30T12:49:42.021Z,23.21
2022-10-30T12:52:35.789Z,22.96
2022-10-30T12:55:24.168Z,22.31
2022-10-30T12:58:15.387Z,22.14
2022-10-30T13:00:51.210Z,22.16
2022-10-30T13:03:28.873Z,21.84
2022-10-30T13:06:00.058Z,21.39
2022-10-30T13:08:32.659Z,21.46
2022-10-30T13:11:28.629Z,21.85
2022-10-30T13:13:58.079Z,22.08
2022-10-30T13:16:30.671Z,22.38
2022-10-30T13:19:01.854Z,22.51
2022-10-30T13:21:37.893Z,22.40
2022-10-30T13:24:10.365Z,22.10
2022-10-30T13:27:12.082Z,21.95
2022-10-30T13:29:47.729Z,22.02
2022-10-30T13:32:32.537Z,21.76
2022-10-30T13:35:32.005Z,21.26
2022-10-30T13:38:23.453Z,20.59
2022-10-30T13:41:08.400Z,20.10
2022-10-30T13:43:49.686Z,19.78
2022-10-30T13:46:59.544Z,19.49
2022-10-30T13:49:44.389Z,19.49
2022-10-30T13:52:19.828Z,19.25
2022-10-30T13:55:05.734Z,19.28
2022-10-30T13:57:45.157Z,19.63
2022-10-30T14:00:22.268Z,19.60
2022-10-30T14:03:18.147Z,19.59
2022-10-30T14:06:02.239Z,19.64
2022-10-30T14:08:40.324Z,19.54
2022-10-30T14:11:11.907Z,19.52
2022-10-30T14:13:51.716Z,19.43
2022-10-30T14:16:40.024Z,19.32
2022-10-30T14:19:14.706Z,19.11
2022-10-30T14:21:43.901Z,18.94
2022-10-30T14:24:29.337Z,18.65
2022-10-30T14:27:05.283Z,18.49
2022-10-30T14:29:34.961Z,18.45
2022-10-30T14:32:02.926Z,18.33
2022-10-30T14:34:50.909Z,18.24
2022-10-30T14:37:21.354Z,18.01
2022-10-30T14:39:49.492Z,17.63
2022-10-30T14:42:25.019Z,17.39
2022-10-30T14:45:09.855Z,17.21
2022-10-30T14:47:36.511Z,17.02
2022-10-30T14:50:27.029Z,17.04
2022-10-30T14:53:27.066Z,16.98
2022-10-30T14:56:09.753Z,16.98
2022-10-30T14:58:38.054Z,16.97
2022-10-30T15:01:04.526Z,16.97
2022-10-30T15:03:47.764Z,16.95
2022-10-30T15:06:53.505Z,16.87
2022-10-30T15:09:44.461Z,16.70
2022-10-30T15:12:47.806Z,16.63
2022-10-30T15:15:18.745Z,16.59
2022-10-30T15:17:55.111Z,16.53
2022-10-30T15:20:25.297Z,16.50
2022-10-30T15:22:58.617Z,16.44
2022-10-30T15:25:33.433Z,16.36
2022-10-30T15:28:00.864Z,16.28
2022-10-30T15:30:27.762Z,16.27
2022-10-30T15:32:54.725Z,16.27
2022-10-30T15:35:26.426Z,16.22
2022-10-30T15:38:01.696Z,16.16
2022-10-30T15:40:29.795Z,16.08
2022-10-30T15:42:58.933Z,16.05
2022-10-30T15:45:41.313Z,16.01
2022-10-30T15:48:27.990Z,15.98
2022-10-30T15:51:17.078Z,15.96
2022-10-30T15:53:45.435Z,15.88
2022-10-30T15:57:08.100Z,15.77
2022-10-30T15:59:33.721Z,15.77
2022-10-30T16:02:00.596Z,15.75
2022-10-30T16:04:35.375Z,15.82
2022-10-30T16:07:22.013Z,15.77
2022-10-30T16:10:01.192Z,15.68
2022-10-30T16:12:30.892Z,15.69
2022-10-30T16:15:07.265Z,15.60
2022-10-30T16:17:35.189Z,15.48
2022-10-30T16:20:04.323Z,15.46
2022-10-30T16:22:36.828Z,15.50
2022-10-30T16:25:07.461Z,15.47
2022-10-30T16:27:34.133Z,15.45
2022-10-30T16:30:01.634Z,15.38
2022-10-30T16:32:31.147Z,15.32
2022-10-30T16:34:59.345Z,15.32
2022-10-30T16:37:34.844Z,15.36
2022-10-30T16:40:13.030Z,15.39
2022-10-30T16:42:40.158Z,15.45
2022-10-30T16:45:12.536Z,15.44
2022-10-30T16:47:43.924Z,15.48
2022-10-30T16:50:16.570Z,15.42
2022-10-30T16:52:44.063Z,15.41
2022-10-30T16:55:23.373Z,15.41
2022-10-30T16:57:58.320Z,15.40
2022-10-30T17:00:36.608Z,15.43
2022-10-30T17:03:10.607Z,15.46
2022-10-30T17:05:38.020Z,15.40
2022-10-30T17:08:29.662Z,15.37
2022-10-30T17:10:59.630Z,15.32
2022-10-30T17:13:36.474Z,15.24
2022-10-30T17:16:26.197Z,15.26
2022-10-30T17:18:54.231Z,15.28
2022-10-30T17:21:39.277Z,15.29
2022-10-30T17:24:06.476Z,15.22
2022-10-30T17:26:38.923Z,15.18
2022-10-30T17:29:05.559Z,15.35
2022-10-30T17:31:38.275Z,15.41
2022-10-30T17:34:15.338Z,15.47
2022-10-30T17:36:42.984Z,15.46
2022-10-30T17:39:09.638Z,15.55
2022-10-30T17:41:36.595Z,15.54
2022-10-30T17:44:03.668Z,15.59
2022-10-30T17:46:30.246Z,15.48
2022-10-30T17:48:59.141Z,15.46
2022-10-30T17:51:26.601Z,15.46
2022-10-30T17:53:53.555Z,15.38
2022-10-30T17:56:24.802Z,15.38
2022-10-30T17:58:51.484Z,15.32
2022-10-30T18:01:23.749Z,15.31
2022-10-30T18:03:52.018Z,15.24
2022-10-30T18:06:22.269Z,15.29
2022-10-30T18:08:50.836Z,15.24
2022-10-30T18:11:19.966Z,15.17
2022-10-30T18:13:47.376Z,15.12
2022-10-30T18:16:15.764Z,15.14
2022-10-30T18:18:42.952Z,15.21
2022-10-30T18:21:18.102Z,15.34
2022-10-30T18:23:53.531Z,15.34
2022-10-30T18:26:30.168Z,15.31
2022-10-30T18:28:56.839Z,15.32
2022-10-30T18:31:24.512Z,15.35
2022-10-30T18:33:51.513Z,15.31
2022-10-30T18:36:21.283Z,15.25
2022-10-30T18:38:48.124Z,15.27
2022-10-30T18:41:26.642Z,15.26
2022-10-30T18:43:53.401Z,15.31
2022-10-30T18:46:19.929Z,15.32
2022-10-30T18:48:46.548Z,15.36
2022-10-30T18:51:17.794Z,15.32
2022-10-30T18:53:51.453Z,15.39
2022-10-30T18:56:29.241Z,15.42
2022-10-30T18:59:00.771Z,15.44
2022-10-30T19:01:30.765Z,15.44
2022-10-30T19:04:00.774Z,15.46
2022-10-30T19:06:27.734Z,15.24
2022-10-30T19:08:56.571Z,15.17
2022-10-30T19:11:25.228Z,15.31
2022-10-30T19:13:52.367Z,15.33
2022-10-30T19:16:20.718Z,15.38
2022-10-30T19:18:48.338Z,15.32
2022-10-30T19:21:17.685Z,15.22
2022-10-30T19:23:44.731Z,15.26
2022-10-30T19:26:13.276Z,15.25
2022-10-30T19:28:41.064Z,15.32
2022-10-30T19:31:08.036Z,15.13
2022-10-30T19:33:34.652Z,15.12
2022-10-30T19:36:04.687Z,15.01
2022-10-30T19:38:32.431Z,15.12
2022-10-30T19:40:59.311Z,14.67
2022-10-30T19:43:25.855Z,14.68
2022-10-30T19:45:56.946Z,14.68
2022-10-30T19:48:55.589Z,14.74
2022-10-30T19:51:11.927Z,14.57
2022-10-30T19:53:39.768Z,14.39
2022-10-30T19:56:07.318Z,14.19
2022-10-30T19:58:33.918Z,14.48
2022-10-30T20:01:00.664Z,14.71
2022-10-30T20:03:27.245Z,14.83
2022-10-30T20:05:55.662Z,14.66
2022-10-30T20:08:24.541Z,14.64
2022-10-30T20:10:57.732Z,14.72
2022-10-30T20:13:26.099Z,14.80
2022-10-30T20:15:54.397Z,14.87
2022-10-30T20:18:28.536Z,14.86
2022-10-30T20:20:57.062Z,14.99
2022-10-30T20:23:24.893Z,14.79
2022-10-30T20:25:58.468Z,14.60
2022-10-30T20:28:29.716Z,14.74
2022-10-30T20:30:56.645Z,14.70
2022-10-30T20:33:25.661Z,14.73
2022-10-30T20:35:52.990Z,14.84
2022-10-30T20:38:26.385Z,14.86
2022-10-30T20:40:53.395Z,14.94
2022-10-30T20:43:22.017Z,15.11
2022-10-30T20:45:48.619Z,14.88
2022-10-30T20:48:15.146Z,14.92
2022-10-30T20:50:42.037Z,14.92
2022-10-30T20:53:12.730Z,14.97
2022-10-30T20:55:40.238Z,14.97
2022-10-30T20:58:06.910Z,14.85
2022-10-30T21:00:33.618Z,14.75
2022-10-30T21:03:05.051Z,14.70
2022-10-30T21:05:45.074Z,14.64
2022-10-30T21:08:15.203Z,14.69
2022-10-30T21:10:42.361Z,14.83
2022-10-30T21:13:11.030Z,15.06
2022-10-30T21:15:39.876Z,15.13
2022-10-30T21:18:06.815Z,15.19
2022-10-30T21:20:33.440Z,15.34
2022-10-30T21:23:00.538Z,15.47
2022-10-30T21:25:27.078Z,15.44
2022-10-30T21:27:56.494Z,15.40
2022-10-30T21:30:23.107Z,15.36
2022-10-30T21:32:49.906Z,15.18
2022-10-30T21:35:17.054Z,15.12
2022-10-30T21:37:43.558Z,15.16
2022-10-30T21:40:10.796Z,15.00
2022-10-30T21:42:37.541Z,14.90
2022-10-30T21:45:04.775Z,14.76
2022-10-30T21:47:31.304Z,14.62
2022-10-30T21:49:57.856Z,14.44
2022-10-30T21:52:24.365Z,14.38
2022-10-30T21:54:50.942Z,14.30
2022-10-30T21:57:17.573Z,14.36
2022-10-30T21:59:44.167Z,14.28
2022-10-30T22:02:15.103Z,14.29
2022-10-30T22:04:41.768Z,14.46
2022-10-30T22:07:08.432Z,14.61
2022-10-30T22:09:35.231Z,14.62
2022-10-30T22:12:01.791Z,14.56
2022-10-30T22:14:29.222Z,14.47
2022-10-30T22:16:55.855Z,14.45
2022-10-30T22:19:22.502Z,14.51
2022-10-30T22:21:49.032Z,14.60
2022-10-30T22:24:16.975Z,14.61
2022-10-30T22:26:43.706Z,14.34
2022-10-30T22:29:11.667Z,14.37
2022-10-30T22:31:38.166Z,14.52
2022-10-30T22:34:04.995Z,14.57
2022-10-30T22:36:33.234Z,14.59
2022-10-30T22:39:07.864Z,14.78
2022-10-30T22:41:38.070Z,14.86
2022-10-30T22:44:08.065Z,14.84
2022-10-30T22:46:35.579Z,14.78
2022-10-30T22:49:02.204Z,14.75
2022-10-30T22:51:32.867Z,14.78
2022-10-30T22:54:02.375Z,14.82
2022-10-30T22:56:31.697Z,14.90
2022-10-30T22:59:01.160Z,14.91
2022-10-30T23:01:30.154Z,14.83
2022-10-30T23:03:58.574Z,14.82
2022-10-30T23:06:26.546Z,14.84
2022-10-30T23:08:54.503Z,14.69
2022-10-30T23:11:21.199Z,14.57
2022-10-30T23:13:48.138Z,14.43
2022-10-30T23:16:19.530Z,14.42
2022-10-30T23:18:46.580Z,14.49
2022-10-30T23:21:17.098Z,14.39
2022-10-30T23:23:43.895Z,14.32
2022-10-30T23:26:25.176Z,14.22
2022-10-30T23:28:53.742Z,14.26
2022-10-30T23:31:38.222Z,14.23
2022-10-30T23:34:07.301Z,14.27
2022-10-30T23:36:34.061Z,14.18
2022-10-30T23:39:02.494Z,14.15
2022-10-30T23:41:31.178Z,14.05
2022-10-30T23:43:59.975Z,14.05
2022-10-30T23:46:27.053Z,14.05
2022-10-30T23:48:53.672Z,14.04
2022-10-30T23:51:21.167Z,14.00
2022-10-30T23:53:48.221Z,14.03
2022-10-30T23:56:15.185Z,14.10
2022-10-30T23:58:46.343Z,14.04
